Time;durP1;ratioP1;P1;durP2;ratioP2;P2;SDS_P1;SDS_P2;PMS_P1;PMS_P2;Temp;Humidity;BMP_temperature;BMP_pressure;BME280_temperature;BME280_humidity;BME280_pressure;Samples;Min_cycle;Max_cycle;Signal;HPM_P1;HPM_P2
2021/06/27 00:01:23;;;;;;;7.37;6.00;;;16.60;58.60;;;;;;5037085;28;20201;-69
2021/06/27 00:03:51;;;;;;;6.97;5.63;;;16.60;58.90;;;;;;5036934;28;20452;-69
2021/06/27 00:06:17;;;;;;;5.53;4.77;;;16.60;58.80;;;;;;5036836;28;20436;-68
2021/06/27 00:08:42;;;;;;;7.50;5.43;;;16.60;58.80;;;;;;5037723;28;20422;-68
2021/06/27 00:11:09;;;;;;;6.43;5.20;;;16.70;59.10;;;;;;5037715;28;20174;-69
2021/06/27 00:13:37;;;;;;;5.87;5.37;;;16.60;59.10;;;;;;5037003;28;20487;-68
2021/06/27 00:16:03;;;;;;;7.57;5.37;;;16.60;59.20;;;;;;5036956;28;20446;-69
2021/06/27 00:18:29;;;;;;;6.00;4.83;;;16.60;59.70;;;;;;5036857;28;20508;-69
2021/06/27 00:20:58;;;;;;;5.57;5.07;;;16.50;59.20;;;;;;5036584;28;20449;-69
2021/06/27 00:23:26;;;;;;;6.07;5.50;;;16.50;60.40;;;;;;5036636;28;20440;-69
2021/06/27 00:25:53;;;;;;;6.60;6.00;;;16.60;60.50;;;;;;5036538;28;20479;-70
2021/06/27 00:28:20;;;;;;;9.13;5.60;;;16.50;60.50;;;;;;5036719;28;20492;-69
2021/06/27 00:30:47;;;;;;;10.80;6.60;;;16.50;60.90;;;;;;5036434;28;20410;-70
2021/06/27 00:33:13;;;;;;;5.43;4.77;;;16.50;60.80;;;;;;5036733;28;20426;-69
2021/06/27 00:35:39;;;;;;;5.90;5.37;;;16.50;60.50;;;;;;5037123;28;21001;-69
2021/06/27 00:38:05;;;;;;;5.40;4.77;;;16.50;61.20;;;;;;5037040;28;20441;-68
2021/06/27 00:40:32;;;;;;;5.70;5.20;;;16.50;60.70;;;;;;5035489;28;20191;-68
2021/06/27 00:42:59;;;;;;;6.80;6.17;;;16.40;60.70;;;;;;5036730;28;20470;-69
2021/06/27 00:45:27;;;;;;;5.30;4.87;;;16.40;61.30;;;;;;5037250;28;20469;-69
2021/06/27 00:47:54;;;;;;;5.90;5.17;;;16.30;61.20;;;;;;5035275;28;20418;-70
2021/06/27 00:50:30;;;;;;;8.10;6.30;;;16.30;61.10;;;;;;5037224;28;20413;-69
2021/06/27 00:52:56;;;;;;;6.97;5.90;;;16.40;61.70;;;;;;5036341;28;20776;-69
2021/06/27 00:55:22;;;;;;;6.60;6.00;;;16.30;61.80;;;;;;5036422;28;20437;-69
2021/06/27 00:57:50;;;;;;;5.90;5.33;;;16.30;62.20;;;;;;5036811;28;20414;-69
2021/06/27 01:00:22;;;;;;;5.70;5.10;;;16.20;61.70;;;;;;5036685;28;20876;-69
2021/06/27 01:02:48;;;;;;;5.83;5.27;;;16.20;62.10;;;;;;5036221;28;20471;-69
2021/06/27 01:05:22;;;;;;;4.40;4.00;;;16.30;62.10;;;;;;5036497;28;20493;-69
2021/06/27 01:07:48;;;;;;;5.70;5.30;;;16.30;62.30;;;;;;5037318;28;20555;-69
2021/06/27 01:10:15;;;;;;;5.27;4.77;;;16.20;62.50;;;;;;5035698;28;20410;-70
2021/06/27 01:12:41;;;;;;;6.07;5.43;;;16.10;62.30;;;;;;5035127;28;20508;-69
2021/06/27 01:15:11;;;;;;;9.10;6.07;;;16.10;62.60;;;;;;5036045;28;20432;-70
2021/06/27 01:17:40;;;;;;;8.60;6.27;;;16.10;63.30;;;;;;5035645;28;20421;-69
2021/06/27 01:20:11;;;;;;;7.27;6.37;;;;;;;;;;5035350;28;20416;-69
2021/06/27 01:22:37;;;;;;;6.07;5.50;;;15.80;84.80;;;;;;5034841;28;20444;-70
2021/06/27 01:25:04;;;;;;;7.13;6.37;;;16.10;77.60;;;;;;5033126;28;20470;-70
2021/06/27 01:27:29;;;;;;;5.97;5.43;;;16.00;79.70;;;;;;5032138;28;20428;-70
2021/06/27 01:29:55;;;;;;;7.40;6.20;;;16.10;82.60;;;;;;5032137;28;20475;-70
2021/06/27 01:32:21;;;;;;;6.57;5.97;;;15.80;80.00;;;;;;5032173;28;20203;-69
2021/06/27 01:34:46;;;;;;;7.40;5.73;;;15.90;82.40;;;;;;5032194;28;20179;-70
2021/06/27 01:37:12;;;;;;;6.90;6.10;;;15.80;77.40;;;;;;5031162;28;20190;-69
2021/06/27 01:39:39;;;;;;;10.43;6.27;;;15.90;79.30;;;;;;5031919;28;20187;-70
2021/06/27 01:42:05;;;;;;;7.83;7.10;;;15.90;72.30;;;;;;5030787;28;20630;-69
2021/06/27 01:44:32;;;;;;;8.03;6.47;;;15.90;67.70;;;;;;5031807;28;20465;-69
2021/06/27 01:46:58;;;;;;;6.87;6.17;;;15.80;67.30;;;;;;5031900;28;20930;-70
2021/06/27 01:49:24;;;;;;;6.50;5.67;;;15.80;70.00;;;;;;5031643;28;20420;-69
2021/06/27 01:51:50;;;;;;;11.43;7.50;;;15.80;70.40;;;;;;5030374;28;20428;-70
2021/06/27 01:54:16;;;;;;;7.60;6.10;;;15.80;71.20;;;;;;5032580;28;20886;-70
2021/06/27 01:56:41;;;;;;;7.13;6.20;;;15.80;68.50;;;;;;5032496;28;20421;-70
2021/06/27 01:59:08;;;;;;;7.57;6.87;;;15.70;69.20;;;;;;5032051;28;20436;-70
2021/06/27 02:01:39;;;;;;;8.80;7.93;;;15.70;57.80;;;;;;5032029;28;20206;-70
2021/06/27 02:04:07;;;;;;;7.00;5.97;;;15.70;58.30;;;;;;5031886;28;20471;-70
2021/06/27 02:06:38;;;;;;;8.30;6.30;;;15.60;58.30;;;;;;5032162;28;20409;-70
2021/06/27 02:09:08;;;;;;;8.90;6.37;;;15.60;58.30;;;;;;5032030;28;20416;-70
2021/06/27 02:11:34;;;;;;;8.33;7.47;;;15.60;58.80;;;;;;5031494;28;20907;-70
2021/06/27 02:14:01;;;;;;;9.10;8.20;;;15.60;59.00;;;;;;5031485;28;20444;-71
2021/06/27 02:16:27;;;;;;;8.43;7.63;;;15.60;59.50;;;;;;5030142;28;20425;-69
2021/06/27 02:18:53;;;;;;;9.17;7.60;;;15.60;59.40;;;;;;5031645;28;20425;-70
2021/06/27 02:21:28;;;;;;;8.87;7.97;;;15.60;59.50;;;;;;5031675;28;20420;-70
2021/06/27 02:23:54;;;;;;;7.90;7.17;;;15.50;59.70;;;;;;5031625;28;20832;-69
2021/06/27 02:26:21;;;;;;;12.00;8.10;;;15.50;60.00;;;;;;5031853;28;20420;-70
2021/06/27 02:28:47;;;;;;;11.47;10.10;;;15.50;60.20;;;;;;5031792;28;20417;-71
2021/06/27 02:31:14;;;;;;;9.30;8.27;;;15.50;60.80;;;;;;5031901;28;20436;-70
2021/06/27 02:33:40;;;;;;;18.37;10.13;;;15.60;61.00;;;;;;5031908;28;20483;-70
2021/06/27 02:36:07;;;;;;;14.83;10.13;;;15.60;60.90;;;;;;5031694;28;20413;-71
2021/06/27 02:38:32;;;;;;;11.33;10.30;;;15.50;61.00;;;;;;5031615;28;20503;-70
2021/06/27 02:40:58;;;;;;;10.00;9.10;;;15.50;60.80;;;;;;5030016;28;20512;-70
2021/06/27 02:43:24;;;;;;;12.17;10.97;;;15.50;61.20;;;;;;5031613;28;20215;-70
2021/06/27 02:45:50;;;;;;;11.20;10.00;;;15.50;61.20;;;;;;5031730;28;20214;-70
2021/06/27 02:48:16;;;;;;;11.50;10.40;;;15.50;61.70;;;;;;5031654;28;20440;-69
2021/06/27 02:50:43;;;;;;;11.67;10.53;;;15.50;61.50;;;;;;5030348;28;20190;-69
2021/06/27 02:53:09;;;;;;;11.27;10.27;;;15.50;61.80;;;;;;5033535;28;20798;-70
2021/06/27 02:55:36;;;;;;;11.80;10.77;;;15.50;62.20;;;;;;5035784;28;20922;-70
2021/06/27 02:58:02;;;;;;;11.20;10.17;;;15.50;61.70;;;;;;5036201;28;20903;-69
2021/06/27 03:00:29;;;;;;;13.30;11.40;;;15.50;62.00;;;;;;5036023;28;20432;-70
2021/06/27 03:02:56;;;;;;;10.40;9.40;;;15.50;62.00;;;;;;5035418;28;20285;-70
2021/06/27 03:05:21;;;;;;;11.67;10.43;;;15.50;61.90;;;;;;5035209;28;21058;-70
2021/06/27 03:07:47;;;;;;;11.50;10.13;;;15.50;61.60;;;;;;5035530;28;20509;-70
2021/06/27 03:10:15;;;;;;;10.67;9.60;;;15.50;61.70;;;;;;5035145;28;20202;-70
2021/06/27 03:12:42;;;;;;;11.27;9.53;;;15.60;62.10;;;;;;5035328;28;20191;-70
2021/06/27 03:15:09;;;;;;;12.27;9.50;;;15.60;62.10;;;;;;5034937;28;20417;-69
2021/06/27 03:17:35;;;;;;;10.50;9.40;;;15.60;62.30;;;;;;5035038;28;20922;-70
2021/06/27 03:20:01;;;;;;;11.83;10.83;;;15.70;62.10;;;;;;5034732;28;20417;-70
2021/06/27 03:22:26;;;;;;;10.30;8.87;;;15.70;61.70;;;;;;5035293;28;20212;-70
2021/06/27 03:24:52;;;;;;;11.20;9.53;;;15.80;61.70;;;;;;5035009;28;20293;-70
2021/06/27 03:27:19;;;;;;;9.30;8.37;;;15.80;61.30;;;;;;5035410;28;20178;-70
2021/06/27 03:29:45;;;;;;;9.80;8.87;;;15.90;60.70;;;;;;5035402;28;20170;-70
2021/06/27 03:32:11;;;;;;;10.60;9.60;;;15.90;60.40;;;;;;5035036;28;20513;-71
2021/06/27 03:34:37;;;;;;;12.40;9.87;;;15.90;60.20;;;;;;5034867;28;20427;-70
2021/06/27 03:37:02;;;;;;;16.73;10.73;;;15.90;59.90;;;;;;5034848;28;20321;-70
2021/06/27 03:39:28;;;;;;;11.60;8.93;;;16.00;59.90;;;;;;5034546;28;20524;-70
2021/06/27 03:41:54;;;;;;;10.77;9.67;;;16.00;60.00;;;;;;5035266;28;20422;-70
2021/06/27 03:44:22;;;;;;;12.40;11.10;;;16.00;60.00;;;;;;5034733;28;20213;-71
2021/06/27 03:46:48;;;;;;;13.57;9.77;;;16.00;59.60;;;;;;5034747;28;20417;-69
2021/06/27 03:49:13;;;;;;;10.40;9.50;;;16.00;59.30;;;;;;5034189;28;20406;-70
2021/06/27 03:51:40;;;;;;;12.73;11.50;;;16.10;59.10;;;;;;5034569;28;20409;-70
2021/06/27 03:54:06;;;;;;;10.37;9.37;;;16.10;58.70;;;;;;5034454;28;20195;-70
2021/06/27 03:56:31;;;;;;;13.37;10.17;;;16.10;58.80;;;;;;5032799;28;20954;-71
2021/06/27 03:58:57;;;;;;;13.30;10.67;;;16.20;58.10;;;;;;5033987;28;20907;-69
2021/06/27 04:01:23;;;;;;;13.67;8.40;;;16.20;57.90;;;;;;5033973;28;20186;-69
2021/06/27 04:03:49;;;;;;;10.07;9.13;;;16.30;58.70;;;;;;5033326;28;20433;-70
2021/06/27 04:06:14;;;;;;;10.50;8.83;;;16.30;57.80;;;;;;5033370;28;20175;-69
2021/06/27 04:08:40;;;;;;;11.17;9.87;;;16.40;57.60;;;;;;5033556;28;20176;-70
2021/06/27 04:11:06;;;;;;;9.37;8.40;;;16.50;57.20;;;;;;5033562;28;20801;-70
2021/06/27 04:13:34;;;;;;;11.13;10.03;;;16.60;57.20;;;;;;5033859;28;20199;-70
2021/06/27 04:16:00;;;;;;;11.70;10.23;;;16.60;56.70;;;;;;5033868;28;20453;-70
2021/06/27 04:18:26;;;;;;;11.50;9.13;;;16.70;56.10;;;;;;5033606;28;20402;-70
2021/06/27 04:20:53;;;;;;;10.97;10.03;;;16.70;56.20;;;;;;5033592;28;20421;-70
2021/06/27 04:23:19;;;;;;;12.40;11.17;;;16.80;56.00;;;;;;5033245;28;20944;-70
2021/06/27 04:25:45;;;;;;;11.93;10.80;;;16.80;55.60;;;;;;5033481;28;20458;-71
2021/06/27 04:28:10;;;;;;;14.13;10.97;;;16.80;55.00;;;;;;5033483;28;20170;-70
2021/06/27 04:30:37;;;;;;;11.60;10.33;;;16.80;54.40;;;;;;5033007;28;20414;-70
2021/06/27 04:33:04;;;;;;;11.93;9.20;;;16.90;54.40;;;;;;5033073;28;20244;-71
2021/06/27 04:35:33;;;;;;;10.63;9.43;;;16.90;54.20;;;;;;5031686;28;20501;-70
2021/06/27 04:37:58;;;;;;;12.60;9.43;;;16.90;53.90;;;;;;5033232;28;20761;-70
2021/06/27 04:40:24;;;;;;;20.03;11.13;;;16.90;53.30;;;;;;5035013;28;20463;-69
2021/06/27 04:42:49;;;;;;;9.83;7.80;;;16.80;53.50;;;;;;5035147;28;20214;-70
2021/06/27 04:45:15;;;;;;;12.23;10.20;;;16.80;53.90;;;;;;5032509;28;20589;-69
2021/06/27 04:47:41;;;;;;;11.60;10.37;;;16.90;54.20;;;;;;5032486;28;20653;-69
2021/06/27 04:50:07;;;;;;;11.47;9.50;;;16.90;52.60;;;;;;5032286;28;20175;-69
2021/06/27 04:52:33;;;;;;;9.00;8.10;;;16.80;53.30;;;;;;5032238;28;20207;-69
2021/06/27 04:55:00;;;;;;;10.50;9.40;;;16.80;52.60;;;;;;5032453;28;20417;-69
2021/06/27 04:57:25;;;;;;;10.77;9.17;;;16.90;52.60;;;;;;5032626;28;20512;-69
2021/06/27 04:59:51;;;;;;;10.20;9.13;;;17.00;53.10;;;;;;5032122;28;20452;-69
2021/06/27 05:02:16;;;;;;;9.67;8.77;;;17.10;52.80;;;;;;5032143;28;20230;-69
2021/06/27 05:04:42;;;;;;;10.00;9.03;;;17.20;51.70;;;;;;5032051;28;20668;-69
2021/06/27 05:07:08;;;;;;;13.77;9.07;;;17.30;50.70;;;;;;5032120;28;20187;-69
2021/06/27 05:09:33;;;;;;;8.10;7.27;;;17.50;50.40;;;;;;5031843;28;20193;-70
2021/06/27 05:11:59;;;;;;;9.23;7.80;;;17.70;49.60;;;;;;5032063;28;20180;-69
2021/06/27 05:14:24;;;;;;;8.90;8.20;;;17.90;49.00;;;;;;5032022;28;20660;-69
2021/06/27 05:16:50;;;;;;;9.53;8.57;;;18.10;47.70;;;;;;5031834;28;20203;-69
2021/06/27 05:19:15;;;;;;;7.77;6.97;;;18.30;46.30;;;;;;5031865;28;20190;-70
2021/06/27 05:21:41;;;;;;;15.10;8.53;;;18.40;46.10;;;;;;5031886;28;20182;-70
2021/06/27 05:24:07;;;;;;;11.43;8.43;;;18.60;45.30;;;;;;5020064;28;20301;-71
2021/06/27 05:26:32;;;;;;;9.20;8.27;;;18.80;44.60;;;;;;5012083;28;20242;-72
2021/06/27 05:28:58;;;;;;;8.30;7.47;;;19.00;43.30;;;;;;5011682;28;20203;-70
2021/06/27 05:31:24;;;;;;;9.53;8.50;;;19.10;42.60;;;;;;5027119;28;20176;-71
2021/06/27 05:33:49;;;;;;;8.30;7.50;;;19.10;42.70;;;;;;5012039;28;20550;-72
2021/06/27 05:36:15;;;;;;;7.27;6.50;;;19.00;43.00;;;;;;5011955;28;20172;-77
2021/06/27 05:38:41;;;;;;;9.97;7.80;;;19.00;43.00;;;;;;5010608;28;20211;-78
2021/06/27 05:41:06;;;;;;;8.17;7.37;;;19.10;43.00;;;;;;5008800;28;20179;-74
2021/06/27 05:43:32;;;;;;;10.10;9.10;;;19.10;42.60;;;;;;5011086;28;20215;-71
2021/06/27 05:45:58;;;;;;;8.60;7.80;;;19.20;42.30;;;;;;5011174;28;20203;-71
2021/06/27 05:48:24;;;;;;;8.77;7.87;;;19.30;42.10;;;;;;5011436;28;20164;-71
2021/06/27 05:50:50;;;;;;;9.83;8.73;;;19.50;41.70;;;;;;5011248;28;20420;-70
2021/06/27 05:53:15;;;;;;;8.57;7.87;;;19.70;41.10;;;;;;5011385;28;20192;-71
2021/06/27 05:55:41;;;;;;;7.63;6.80;;;20.20;40.10;;;;;;5011143;28;20176;-70
2021/06/27 05:58:06;;;;;;;8.83;7.30;;;20.70;39.10;;;;;;5011049;28;20672;-70
2021/06/27 06:00:32;;;;;;;10.90;8.23;;;21.60;36.00;;;;;;5010726;28;20660;-71
2021/06/27 06:02:57;;;;;;;8.67;7.77;;;22.40;27.20;;;;;;5011103;28;20196;-70
2021/06/27 06:05:23;;;;;;;8.40;7.50;;;23.80;25.40;;;;;;5011119;28;20308;-71
2021/06/27 06:07:49;;;;;;;8.10;7.40;;;25.20;22.00;;;;;;5010870;28;20263;-71
2021/06/27 06:10:15;;;;;;;8.33;6.97;;;26.00;21.10;;;;;;5010719;28;20175;-71
2021/06/27 06:12:40;;;;;;;7.50;6.80;;;27.20;19.00;;;;;;5010728;28;20443;-71
2021/06/27 06:15:07;;;;;;;7.03;6.43;;;28.50;16.50;;;;;;5009625;28;20188;-71
2021/06/27 06:17:32;;;;;;;9.13;6.93;;;29.00;15.00;;;;;;5010899;28;20226;-71
2021/06/27 06:19:58;;;;;;;6.90;6.00;;;29.60;13.40;;;;;;5010449;28;20423;-71
2021/06/27 06:22:23;;;;;;;7.07;6.33;;;30.30;13.00;;;;;;5025823;28;20282;-71
2021/06/27 06:24:50;;;;;;;6.50;5.90;;;;;;;;;;5010548;28;20200;-70
2021/06/27 06:27:15;;;;;;;8.50;7.77;;;31.80;9.80;;;;;;5010328;28;20819;-71
2021/06/27 06:29:42;;;;;;;7.03;6.43;;;32.10;8.90;;;;;;5010360;28;20407;-71
2021/06/27 06:32:07;;;;;;;7.23;6.53;;;32.20;10.00;;;;;;5010860;28;20206;-71
2021/06/27 06:34:33;;;;;;;7.13;6.23;;;32.40;9.50;;;;;;5010601;28;20434;-71
2021/06/27 06:36:59;;;;;;;7.43;6.93;;;33.10;8.60;;;;;;5010578;28;20183;-71
2021/06/27 06:39:24;;;;;;;7.60;7.00;;;33.20;8.00;;;;;;5010551;28;20191;-72
2021/06/27 06:41:50;;;;;;;7.43;6.90;;;33.40;7.20;;;;;;5010263;28;20180;-71
2021/06/27 06:44:15;;;;;;;7.63;6.93;;;34.00;6.40;;;;;;5010619;28;20227;-71
2021/06/27 06:46:41;;;;;;;6.97;6.37;;;34.00;6.40;;;;;;5010792;28;20179;-69
2021/06/27 06:49:08;;;;;;;9.00;8.07;;;34.30;6.60;;;;;;5010231;28;20184;-69
2021/06/27 06:51:34;;;;;;;9.03;8.43;;;34.70;6.20;;;;;;5010642;28;20550;-69
2021/06/27 06:53:59;;;;;;;8.60;8.10;;;34.50;6.10;;;;;;5010392;28;20923;-69
2021/06/27 06:56:25;;;;;;;9.80;9.10;;;34.60;5.70;;;;;;5009236;28;20514;-69
2021/06/27 06:58:51;;;;;;;10.27;9.27;;;34.20;5.60;;;;;;5010530;28;20191;-71
2021/06/27 07:01:17;;;;;;;10.20;9.57;;;33.60;6.40;;;;;;5009591;28;20238;-70
2021/06/27 07:03:44;;;;;;;11.30;10.50;;;33.80;6.30;;;;;;5024173;28;20442;-70
2021/06/27 07:06:09;;;;;;;10.60;9.90;;;34.20;6.50;;;;;;5019371;28;20470;-71
2021/06/27 07:08:35;;;;;;;11.70;11.10;;;34.60;6.30;;;;;;5009946;28;20435;-72
2021/06/27 07:11:00;;;;;;;12.00;11.40;;;34.80;5.60;;;;;;5009915;28;20241;-70
2021/06/27 07:13:26;;;;;;;11.77;11.27;;;34.90;5.30;;;;;;5010259;28;20226;-71
2021/06/27 07:15:52;;;;;;;12.47;11.77;;;35.20;4.90;;;;;;5010206;28;20199;-70
2021/06/27 07:18:17;;;;;;;13.30;12.60;;;35.10;4.70;;;;;;5009833;28;20642;-72
2021/06/27 07:20:43;;;;;;;13.23;12.63;;;35.20;4.60;;;;;;5010125;28;20597;-71
2021/06/27 07:23:08;;;;;;;13.30;12.60;;;35.10;4.70;;;;;;5029826;28;20928;-71
2021/06/27 07:25:34;;;;;;;13.70;13.00;;;35.20;4.60;;;;;;5045419;28;20614;-71
2021/06/27 07:28:00;;;;;;;13.33;12.70;;;35.30;4.50;;;;;;5030098;28;20221;-70
2021/06/27 07:30:25;;;;;;;13.90;13.23;;;35.50;5.20;;;;;;5030505;28;20611;-71
2021/06/27 07:32:51;;;;;;;14.30;13.60;;;35.20;4.60;;;;;;5012033;28;20250;-70
2021/06/27 07:35:16;;;;;;;13.97;13.27;;;35.20;4.50;;;;;;5029797;28;20182;-70
2021/06/27 07:37:44;;;;;;;13.63;13.10;;;35.20;5.10;;;;;;5030083;28;20175;-71
2021/06/27 07:40:10;;;;;;;14.63;13.73;;;35.30;5.30;;;;;;5030819;28;20171;-71
2021/06/27 07:42:36;;;;;;;16.20;15.10;;;35.60;4.80;;;;;;5033028;28;20544;-71
2021/06/27 07:45:03;;;;;;;14.53;13.90;;;35.30;4.70;;;;;;5048687;28;21051;-71
2021/06/27 07:47:28;;;;;;;14.70;14.10;;;35.00;5.30;;;;;;5033301;28;20167;-70
2021/06/27 07:49:54;;;;;;;16.80;15.73;;;35.30;5.10;;;;;;5032806;28;20965;-70
2021/06/27 07:52:19;;;;;;;15.40;14.60;;;35.20;4.40;;;;;;5033039;28;20198;-70
2021/06/27 07:54:45;;;;;;;17.47;16.03;;;34.20;5.30;;;;;;5028186;28;20481;-70
2021/06/27 07:57:10;;;;;;;16.70;15.80;;;32.50;6.80;;;;;;5028780;28;20186;-70
2021/06/27 07:59:36;;;;;;;14.07;13.53;;;31.80;9.10;;;;;;5028132;28;20325;-71
2021/06/27 08:02:02;;;;;;;15.07;14.37;;;32.00;6.80;;;;;;5028922;28;20184;-70
2021/06/27 08:04:27;;;;;;;14.50;13.80;;;32.60;5.60;;;;;;5028630;28;20781;-70
2021/06/27 08:06:53;;;;;;;14.40;13.80;;;33.20;4.50;;;;;;5032137;28;20190;-71
2021/06/27 08:09:20;;;;;;;14.97;14.37;;;33.60;3.50;;;;;;5047210;28;20560;-70
2021/06/27 08:11:46;;;;;;;14.67;13.97;;;34.10;3.90;;;;;;5007416;28;20188;-71
2021/06/27 08:14:11;;;;;;;15.00;14.30;;;34.80;2.00;;;;;;5009499;28;20816;-71
2021/06/27 08:16:37;;;;;;;14.00;13.50;;;35.50;1.40;;;;;;5008742;28;20545;-71
2021/06/27 08:19:04;;;;;;;15.00;14.30;;;36.10;1.60;;;;;;5008544;28;20184;-71
2021/06/27 08:21:30;;;;;;;15.30;14.57;;;35.90;1.70;;;;;;5009412;28;20183;-70
2021/06/27 08:23:55;;;;;;;16.03;14.80;;;35.90;1.10;;;;;;5007609;28;20944;-70
2021/06/27 08:26:23;;;;;;;15.40;14.80;;;35.40;1.00;;;;;;5008481;28;20219;-71
2021/06/27 08:28:50;;;;;;;15.33;14.73;;;34.90;1.00;;;;;;5007398;28;20295;-72
2021/06/27 08:31:15;;;;;;;14.80;14.20;;;35.20;1.00;;;;;;5008577;28;21212;-71
2021/06/27 08:33:41;;;;;;;15.40;14.47;;;35.70;1.30;;;;;;5007495;28;20439;-70
2021/06/27 08:36:07;;;;;;;15.70;15.10;;;35.50;1.00;;;;;;5009283;28;20291;-71
2021/06/27 08:38:33;;;;;;;15.30;14.70;;;35.10;1.00;;;;;;5008366;28;20192;-71
2021/06/27 08:40:59;;;;;;;15.53;14.93;;;35.10;1.00;;;;;;5007022;28;20480;-70
2021/06/27 08:43:32;;;;;;;15.80;15.20;;;35.10;1.00;;;;;;5010602;28;20821;-71
2021/06/27 08:45:59;;;;;;;15.50;14.93;;;34.60;2.30;;;;;;5009655;28;20498;-71
2021/06/27 08:48:26;;;;;;;15.63;15.03;;;34.80;1.00;;;;;;5009346;28;20789;-70
2021/06/27 08:50:53;;;;;;;16.37;15.67;;;35.00;1.00;;;;;;5008943;28;20908;-70
2021/06/27 08:53:20;;;;;;;16.40;15.73;;;35.20;1.00;;;;;;5009308;28;20493;-70
2021/06/27 08:55:46;;;;;;;17.00;16.30;;;34.90;1.20;;;;;;5010138;28;20422;-70
2021/06/27 08:58:12;;;;;;;16.50;15.90;;;34.60;1.30;;;;;;5014324;28;20475;-70
2021/06/27 09:00:38;;;;;;;17.63;16.93;;;34.40;1.50;;;;;;5009434;28;20490;-70
2021/06/27 09:03:10;;;;;;;16.83;16.23;;;;;;;;;;5007651;28;20674;-71
2021/06/27 09:05:38;;;;;;;17.13;16.53;;;33.10;2.80;;;;;;5008854;28;20462;-70
2021/06/27 09:08:14;;;;;;;17.40;16.70;;;32.60;2.00;;;;;;5011294;28;20419;-69
2021/06/27 09:10:40;;;;;;;17.53;16.73;;;31.30;3.10;;;;;;5011820;28;20423;-70
2021/06/27 09:13:06;;;;;;;17.00;16.30;;;30.60;4.60;;;;;;5011385;28;20434;-70
2021/06/27 09:15:53;;;;;;;16.70;16.03;;;30.00;5.30;;;;;;5012964;28;20196;-69
2021/06/27 09:18:19;;;;;;;17.20;16.50;;;29.40;6.20;;;;;;5014223;28;20664;-69
2021/06/27 09:20:47;;;;;;;16.47;15.87;;;29.10;7.10;;;;;;5011193;28;20490;-69
2021/06/27 09:23:14;;;;;;;16.20;15.60;;;28.70;8.30;;;;;;5009911;28;20203;-70
2021/06/27 09:25:42;;;;;;;16.13;15.30;;;28.60;7.70;;;;;;5009207;28;20892;-70
2021/06/27 09:28:12;;;;;;;15.70;15.10;;;28.60;8.30;;;;;;5008354;28;20462;-70
2021/06/27 09:30:50;;;;;;;17.00;16.23;;;28.60;7.30;;;;;;5007507;28;20419;-69
2021/06/27 09:33:22;;;;;;;15.83;15.23;;;28.50;6.70;;;;;;5008586;28;20952;-69
2021/06/27 09:36:00;;;;;;;16.67;16.07;;;28.50;8.90;;;;;;5008856;28;20431;-69
2021/06/27 09:38:25;;;;;;;16.80;16.03;;;28.40;7.70;;;;;;5013222;28;20410;-71
2021/06/27 09:41:04;;;;;;;16.60;16.00;;;28.50;7.60;;;;;;5028126;28;20485;-70
2021/06/27 09:43:31;;;;;;;17.10;16.13;;;28.60;7.50;;;;;;5013384;28;20207;-69
2021/06/27 09:45:59;;;;;;;15.70;14.97;;;28.60;7.50;;;;;;5020562;28;20501;-70
2021/06/27 09:48:27;;;;;;;17.10;16.40;;;28.60;7.30;;;;;;5031490;28;20410;-70
2021/06/27 09:50:54;;;;;;;16.10;15.40;;;28.60;5.70;;;;;;5027289;28;20784;-70
2021/06/27 09:53:41;;;;;;;16.47;15.80;;;28.60;7.00;;;;;;5011716;28;20994;-69
2021/06/27 09:56:08;;;;;;;16.00;15.40;;;28.70;8.60;;;;;;5011726;28;20989;-70
2021/06/27 09:58:34;;;;;;;16.60;16.00;;;28.90;8.20;;;;;;5014018;28;20442;-71
2021/06/27 10:01:00;;;;;;;16.40;15.73;;;29.00;6.90;;;;;;5016291;28;20996;-71
2021/06/27 10:03:27;;;;;;;16.90;16.10;;;29.00;6.60;;;;;;5022998;28;20462;-71
2021/06/27 10:06:06;;;;;;;16.13;15.53;;;29.10;6.20;;;;;;5036245;28;20199;-69
2021/06/27 10:08:32;;;;;;;16.37;15.77;;;29.30;7.00;;;;;;5035104;28;20422;-70
2021/06/27 10:11:16;;;;;;;16.33;15.73;;;29.40;6.30;;;;;;5022237;28;20491;-71
2021/06/27 10:13:46;;;;;;;16.07;15.47;;;29.30;5.40;;;;;;5016323;28;20237;-70
2021/06/27 10:16:16;;;;;;;16.23;15.63;;;29.40;6.00;;;;;;5013979;28;20789;-71
2021/06/27 10:18:42;;;;;;;16.80;16.10;;;29.40;6.60;;;;;;5011430;28;20422;-71
2021/06/27 10:21:10;;;;;;;16.20;15.60;;;29.70;6.40;;;;;;5011409;28;20421;-70
2021/06/27 10:23:36;;;;;;;16.30;15.70;;;29.90;6.00;;;;;;5013853;28;20461;-70
2021/06/27 10:26:01;;;;;;;16.73;16.03;;;30.20;5.00;;;;;;5011467;28;20469;-70
2021/06/27 10:28:27;;;;;;;16.73;16.13;;;30.20;5.80;;;;;;5011376;28;20689;-71
2021/06/27 10:30:53;;;;;;;16.10;15.50;;;30.10;5.40;;;;;;5011143;28;20172;-69
2021/06/27 10:33:19;;;;;;;17.20;16.50;;;29.90;5.90;;;;;;5011389;28;20435;-71
2021/06/27 10:35:52;;;;;;;16.50;15.90;;;30.00;4.30;;;;;;5011281;28;20454;-69
2021/06/27 10:38:21;;;;;;;17.57;16.77;;;30.00;5.90;;;;;;5011561;28;20712;-70
2021/06/27 10:40:55;;;;;;;17.03;16.40;;;29.90;6.40;;;;;;5010980;28;20421;-71
2021/06/27 10:43:22;;;;;;;17.03;16.40;;;30.00;6.00;;;;;;5011084;28;20552;-69
2021/06/27 10:45:48;;;;;;;18.10;17.40;;;30.00;5.10;;;;;;5022796;28;20466;-70
2021/06/27 10:48:31;;;;;;;17.00;16.30;;;30.10;4.30;;;;;;5010860;28;20415;-71
2021/06/27 10:50:59;;;;;;;17.07;16.47;;;30.30;5.20;;;;;;5010690;28;20454;-71
2021/06/27 10:53:25;;;;;;;17.17;16.57;;;30.20;2.70;;;;;;5011065;28;20446;-70
2021/06/27 10:55:58;;;;;;;16.50;15.90;;;30.20;4.40;;;;;;5011041;28;20939;-70
2021/06/27 10:58:36;;;;;;;17.43;16.77;;;30.30;4.50;;;;;;5010919;28;20411;-69
2021/06/27 11:01:08;;;;;;;17.40;16.70;;;30.10;4.30;;;;;;5010959;28;20477;-70
2021/06/27 11:03:43;;;;;;;16.43;15.83;;;30.00;3.90;;;;;;5011065;28;20562;-70
2021/06/27 11:06:12;;;;;;;16.87;16.27;;;30.00;4.70;;;;;;5010792;28;20469;-70
2021/06/27 11:08:38;;;;;;;15.90;15.30;;;30.10;4.40;;;;;;5010670;28;20407;-69
2021/06/27 11:11:14;;;;;;;16.70;16.10;;;30.20;5.00;;;;;;5010765;28;20480;-70
2021/06/27 11:13:41;;;;;;;16.77;16.07;;;30.30;3.80;;;;;;5017527;28;20250;-70
2021/06/27 11:16:12;;;;;;;17.30;16.70;;;30.30;3.80;;;;;;5037858;28;20428;-70
2021/06/27 11:18:49;;;;;;;16.77;16.07;;;30.20;4.40;;;;;;5037067;28;20418;-70
2021/06/27 11:21:15;;;;;;;16.60;16.00;;;30.00;4.80;;;;;;5037461;28;20409;-70
2021/06/27 11:23:53;;;;;;;16.90;16.30;;;30.20;4.40;;;;;;5035737;28;20468;-70
2021/06/27 11:26:52;;;;;;;17.53;16.83;;;30.20;4.40;;;;;;5017930;28;20265;-69
2021/06/27 11:29:21;;;;;;;17.17;16.47;;;30.30;4.50;;;;;;5017855;28;20411;-71
2021/06/27 11:31:48;;;;;;;17.07;16.27;;;30.40;4.50;;;;;;5017417;28;20931;-70
2021/06/27 11:34:36;;;;;;;17.47;16.77;;;30.50;3.10;;;;;;5017183;28;20422;-69
2021/06/27 11:37:16;;;;;;;17.50;16.90;;;30.60;2.90;;;;;;5015563;28;20488;-69
2021/06/27 11:39:52;;;;;;;17.97;17.27;;;30.90;2.40;;;;;;5016144;28;20950;-70
2021/06/27 11:42:27;;;;;;;18.07;17.33;;;31.10;1.00;;;;;;5017976;28;20460;-70
2021/06/27 11:45:16;;;;;;;18.27;17.57;;;30.90;2.60;;;;;;5019956;28;20500;-70
2021/06/27 11:47:43;;;;;;;18.23;17.53;;;30.70;2.30;;;;;;5018747;28;20410;-71
2021/06/27 11:50:19;;;;;;;17.43;16.83;;;30.60;3.60;;;;;;5016835;28;20456;-69
2021/06/27 11:52:52;;;;;;;18.20;17.50;;;30.30;4.50;;;;;;5017725;28;20555;-70
2021/06/27 11:55:26;;;;;;;17.97;17.27;;;30.10;4.10;;;;;;5018023;28;20415;-70
2021/06/27 11:57:52;;;;;;;17.63;17.03;;;29.70;4.20;;;;;;5016897;28;20526;-70
2021/06/27 12:00:19;;;;;;;17.77;16.97;;;29.70;4.10;;;;;;5021093;28;20882;-70
2021/06/27 12:02:44;;;;;;;18.13;17.43;;;29.60;5.90;;;;;;5014441;28;20207;-70
2021/06/27 12:05:15;;;;;;;18.13;17.33;;;29.60;4.80;;;;;;5017671;28;21001;-70
2021/06/27 12:07:42;;;;;;;18.27;17.57;;;29.70;4.10;;;;;;5014856;28;20172;-71
2021/06/27 12:10:20;;;;;;;17.90;17.20;;;29.80;4.20;;;;;;5014420;28;20406;-71
2021/06/27 12:12:59;;;;;;;18.23;17.53;;;29.80;3.40;;;;;;5015268;28;20474;-69
2021/06/27 12:15:27;;;;;;;18.37;17.57;;;29.80;3.80;;;;;;5015278;28;20759;-71
2021/06/27 12:18:04;;;;;;;18.67;17.87;;;30.00;3.00;;;;;;5013990;28;20506;-71
2021/06/27 12:20:37;;;;;;;18.53;17.83;;;30.10;2.60;;;;;;5031309;28;20418;-69
2021/06/27 12:23:06;;;;;;;17.80;17.00;;;30.10;3.10;;;;;;5013620;28;20451;-71
2021/06/27 12:25:45;;;;;;;18.70;17.90;;;30.10;4.30;;;;;;5010480;28;20501;-70
2021/06/27 12:28:16;;;;;;;19.07;18.37;;;30.20;2.90;;;;;;5010777;28;20489;-71
2021/06/27 12:30:53;;;;;;;18.13;17.43;;;30.20;2.90;;;;;;5009527;28;20422;-71
2021/06/27 12:33:26;;;;;;;18.57;17.87;;;30.20;3.80;;;;;;5008207;28;20449;-71
2021/06/27 12:36:12;;;;;;;18.50;17.80;;;30.10;4.00;;;;;;5009713;28;20430;-71
2021/06/27 12:38:40;;;;;;;17.80;17.10;;;29.90;4.20;;;;;;5008403;28;20419;-70
2021/06/27 12:41:09;;;;;;;17.63;17.03;;;30.00;3.10;;;;;;5011716;28;20427;-70
2021/06/27 12:43:43;;;;;;;18.77;17.93;;;30.20;3.60;;;;;;5009491;28;20983;-68